sensor_id;sensor_type;location;lat;lon;timestamp;P1;durP1;ratioP1;P2;durP2;ratioP2
54919;SDS011;63804;53.120;8.764;2023-03-25T00:00:04;15.20;;;6.00;;
54919;SDS011;63804;53.120;8.764;2023-03-25T00:02:39;11.48;;;5.60;;
54919;SDS011;63804;53.120;8.764;2023-03-25T00:05:05;12.20;;;5.47;;
54919;SDS011;63804;53.120;8.764;2023-03-25T00:07:30;11.90;;;4.47;;
54919;SDS011;63804;53.120;8.764;2023-03-25T00:09:56;9.18;;;3.92;;
54919;SDS011;63804;53.120;8.764;2023-03-25T00:12:22;10.32;;;3.45;;
54919;SDS011;63804;53.120;8.764;2023-03-25T00:14:47;8.35;;;3.22;;
54919;SDS011;63804;53.120;8.764;2023-03-25T00:17:20;8.43;;;3.50;;
54919;SDS011;63804;53.120;8.764;2023-03-25T00:19:46;10.45;;;3.13;;
54919;SDS011;63804;53.120;8.764;2023-03-25T00:22:15;8.80;;;3.30;;
54919;SDS011;63804;53.120;8.764;2023-03-25T00:24:41;7.85;;;2.95;;
54919;SDS011;63804;53.120;8.764;2023-03-25T00:27:07;9.00;;;2.95;;
54919;SDS011;63804;53.120;8.764;2023-03-25T00:29:32;12.63;;;3.75;;
54919;SDS011;63804;53.120;8.764;2023-03-25T00:31:58;11.05;;;4.30;;
54919;SDS011;63804;53.120;8.764;2023-03-25T00:34:23;9.70;;;4.75;;
54919;SDS011;63804;53.120;8.764;2023-03-25T00:36:55;9.95;;;3.75;;
54919;SDS011;63804;53.120;8.764;2023-03-25T00:39:21;10.30;;;3.78;;
54919;SDS011;63804;53.120;8.764;2023-03-25T00:41:46;11.38;;;3.55;;
54919;SDS011;63804;53.120;8.764;2023-03-25T00:44:12;11.65;;;3.70;;
54919;SDS011;63804;53.120;8.764;2023-03-25T00:46:38;9.90;;;3.83;;
54919;SDS011;63804;53.120;8.764;2023-03-25T00:49:04;7.65;;;3.08;;
54919;SDS011;63804;53.120;8.764;2023-03-25T00:51:29;7.90;;;2.70;;
54919;SDS011;63804;53.120;8.764;2023-03-25T00:53:58;7.30;;;2.78;;
54919;SDS011;63804;53.120;8.764;2023-03-25T00:56:28;8.25;;;2.30;;
54919;SDS011;63804;53.120;8.764;2023-03-25T00:58:54;7.50;;;2.45;;
54919;SDS011;63804;53.120;8.764;2023-03-25T01:01:27;10.95;;;2.30;;
54919;SDS011;63804;53.120;8.764;2023-03-25T01:03:57;6.70;;;2.30;;
54919;SDS011;63804;53.120;8.764;2023-03-25T01:06:33;11.07;;;2.85;;
54919;SDS011;63804;53.120;8.764;2023-03-25T01:09:01;7.50;;;2.20;;
54919;SDS011;63804;53.120;8.764;2023-03-25T01:11:30;6.60;;;2.05;;
54919;SDS011;63804;53.120;8.764;2023-03-25T01:14:06;8.70;;;2.40;;
54919;SDS011;63804;53.120;8.764;2023-03-25T01:16:35;8.00;;;2.03;;
54919;SDS011;63804;53.120;8.764;2023-03-25T01:19:01;5.53;;;1.90;;
54919;SDS011;63804;53.120;8.764;2023-03-25T01:21:26;7.47;;;2.15;;
54919;SDS011;63804;53.120;8.764;2023-03-25T01:23:52;8.00;;;2.00;;
54919;SDS011;63804;53.120;8.764;2023-03-25T01:26:17;7.45;;;1.85;;
54919;SDS011;63804;53.120;8.764;2023-03-25T01:28:43;5.63;;;1.63;;
54919;SDS011;63804;53.120;8.764;2023-03-25T01:31:11;6.07;;;1.80;;
54919;SDS011;63804;53.120;8.764;2023-03-25T01:33:37;5.93;;;1.60;;
54919;SDS011;63804;53.120;8.764;2023-03-25T01:36:04;7.38;;;2.25;;
54919;SDS011;63804;53.120;8.764;2023-03-25T01:38:36;5.95;;;1.70;;
54919;SDS011;63804;53.120;8.764;2023-03-25T01:41:02;8.43;;;1.92;;
54919;SDS011;63804;53.120;8.764;2023-03-25T01:43:29;7.85;;;2.00;;
54919;SDS011;63804;53.120;8.764;2023-03-25T01:45:55;9.45;;;2.20;;
54919;SDS011;63804;53.120;8.764;2023-03-25T01:48:23;7.32;;;2.05;;
54919;SDS011;63804;53.120;8.764;2023-03-25T01:50:53;7.43;;;2.03;;
54919;SDS011;63804;53.120;8.764;2023-03-25T01:53:25;9.93;;;2.30;;
54919;SDS011;63804;53.120;8.764;2023-03-25T01:55:52;5.95;;;2.00;;
54919;SDS011;63804;53.120;8.764;2023-03-25T01:58:19;8.68;;;1.98;;
54919;SDS011;63804;53.120;8.764;2023-03-25T02:00:46;8.00;;;2.00;;
54919;SDS011;63804;53.120;8.764;2023-03-25T02:03:14;6.80;;;2.00;;
54919;SDS011;63804;53.120;8.764;2023-03-25T02:06:03;5.65;;;1.90;;
54919;SDS011;63804;53.120;8.764;2023-03-25T02:08:34;6.10;;;1.98;;
54919;SDS011;63804;53.120;8.764;2023-03-25T02:11:07;5.78;;;2.00;;
54919;SDS011;63804;53.120;8.764;2023-03-25T02:13:35;4.43;;;2.05;;
54919;SDS011;63804;53.120;8.764;2023-03-25T02:16:06;9.25;;;2.53;;
54919;SDS011;63804;53.120;8.764;2023-03-25T02:18:37;7.15;;;2.03;;
54919;SDS011;63804;53.120;8.764;2023-03-25T02:21:13;5.60;;;2.00;;
54919;SDS011;63804;53.120;8.764;2023-03-25T02:24:01;5.82;;;1.80;;
54919;SDS011;63804;53.120;8.764;2023-03-25T02:44:00;7.85;;;2.30;;
54919;SDS011;63804;53.120;8.764;2023-03-25T02:46:31;5.95;;;2.13;;
54919;SDS011;63804;53.120;8.764;2023-03-25T02:49:43;6.88;;;2.40;;
54919;SDS011;63804;53.120;8.764;2023-03-25T02:52:11;8.55;;;2.30;;
54919;SDS011;63804;53.120;8.764;2023-03-25T02:54:38;6.80;;;2.00;;
54919;SDS011;63804;53.120;8.764;2023-03-25T02:57:06;5.75;;;1.90;;
54919;SDS011;63804;53.120;8.764;2023-03-25T02:59:34;8.68;;;2.38;;
54919;SDS011;63804;53.120;8.764;2023-03-25T03:02:03;9.05;;;2.17;;
54919;SDS011;63804;53.120;8.764;2023-03-25T03:04:44;9.55;;;2.30;;
54919;SDS011;63804;53.120;8.764;2023-03-25T03:07:32;7.45;;;2.20;;
54919;SDS011;63804;53.120;8.764;2023-03-25T03:10:08;8.15;;;2.20;;
54919;SDS011;63804;53.120;8.764;2023-03-25T03:21:19;6.18;;;2.05;;
54919;SDS011;63804;53.120;8.764;2023-03-25T03:29:12;7.43;;;1.98;;
54919;SDS011;63804;53.120;8.764;2023-03-25T03:31:43;8.98;;;2.30;;
54919;SDS011;63804;53.120;8.764;2023-03-25T03:34:26;7.63;;;2.20;;
54919;SDS011;63804;53.120;8.764;2023-03-25T03:36:58;8.70;;;2.47;;
54919;SDS011;63804;53.120;8.764;2023-03-25T03:41:56;7.05;;;2.10;;
54919;SDS011;63804;53.120;8.764;2023-03-25T03:44:31;4.80;;;1.80;;
54919;SDS011;63804;53.120;8.764;2023-03-25T03:47:05;7.45;;;2.08;;
54919;SDS011;63804;53.120;8.764;2023-03-25T03:49:41;5.95;;;2.13;;
54919;SDS011;63804;53.120;8.764;2023-03-25T03:52:12;7.68;;;1.90;;
54919;SDS011;63804;53.120;8.764;2023-03-25T03:54:47;5.80;;;2.13;;
54919;SDS011;63804;53.120;8.764;2023-03-25T03:57:18;7.78;;;2.17;;
54919;SDS011;63804;53.120;8.764;2023-03-25T04:00:07;8.40;;;2.03;;
54919;SDS011;63804;53.120;8.764;2023-03-25T04:05:19;8.32;;;2.75;;
54919;SDS011;63804;53.120;8.764;2023-03-25T04:07:54;11.43;;;2.88;;
54919;SDS011;63804;53.120;8.764;2023-03-25T04:10:48;7.18;;;2.30;;
54919;SDS011;63804;53.120;8.764;2023-03-25T04:13:19;7.80;;;2.10;;
54919;SDS011;63804;53.120;8.764;2023-03-25T04:15:47;10.43;;;2.50;;
54919;SDS011;63804;53.120;8.764;2023-03-25T04:18:13;8.00;;;2.22;;
54919;SDS011;63804;53.120;8.764;2023-03-25T04:20:39;9.88;;;2.60;;
54919;SDS011;63804;53.120;8.764;2023-03-25T04:23:09;7.97;;;2.60;;
54919;SDS011;63804;53.120;8.764;2023-03-25T04:25:40;9.52;;;3.00;;
54919;SDS011;63804;53.120;8.764;2023-03-25T04:28:07;11.85;;;2.63;;
54919;SDS011;63804;53.120;8.764;2023-03-25T04:30:38;9.18;;;2.60;;
54919;SDS011;63804;53.120;8.764;2023-03-25T04:33:05;10.55;;;3.22;;
54919;SDS011;63804;53.120;8.764;2023-03-25T04:35:31;12.88;;;2.78;;
54919;SDS011;63804;53.120;8.764;2023-03-25T04:37:58;8.30;;;2.70;;
54919;SDS011;63804;53.120;8.764;2023-03-25T04:40:23;8.88;;;2.80;;
54919;SDS011;63804;53.120;8.764;2023-03-25T04:42:50;7.80;;;2.78;;
54919;SDS011;63804;53.120;8.764;2023-03-25T04:45:17;7.68;;;2.80;;
54919;SDS011;63804;53.120;8.764;2023-03-25T04:47:43;7.50;;;3.22;;
54919;SDS011;63804;53.120;8.764;2023-03-25T04:50:16;10.25;;;2.50;;
54919;SDS011;63804;53.120;8.764;2023-03-25T04:52:51;8.02;;;2.20;;
54919;SDS011;63804;53.120;8.764;2023-03-25T04:55:18;9.70;;;3.20;;
54919;SDS011;63804;53.120;8.764;2023-03-25T04:57:44;9.65;;;2.50;;
54919;SDS011;63804;53.120;8.764;2023-03-25T05:00:18;8.95;;;2.70;;
54919;SDS011;63804;53.120;8.764;2023-03-25T05:02:50;10.23;;;2.90;;
54919;SDS011;63804;53.120;8.764;2023-03-25T05:05:18;9.93;;;2.92;;
54919;SDS011;63804;53.120;8.764;2023-03-25T05:07:47;8.48;;;3.00;;
54919;SDS011;63804;53.120;8.764;2023-03-25T05:10:15;11.82;;;3.17;;
54919;SDS011;63804;53.120;8.764;2023-03-25T05:12:42;11.50;;;3.25;;
54919;SDS011;63804;53.120;8.764;2023-03-25T05:15:08;7.78;;;2.75;;
54919;SDS011;63804;53.120;8.764;2023-03-25T05:17:34;10.27;;;2.90;;
54919;SDS011;63804;53.120;8.764;2023-03-25T05:20:00;10.63;;;3.00;;
54919;SDS011;63804;53.120;8.764;2023-03-25T05:22:26;8.25;;;2.78;;
54919;SDS011;63804;53.120;8.764;2023-03-25T05:24:52;11.13;;;2.90;;
54919;SDS011;63804;53.120;8.764;2023-03-25T05:27:21;11.57;;;3.30;;
54919;SDS011;63804;53.120;8.764;2023-03-25T05:29:47;12.07;;;3.33;;
54919;SDS011;63804;53.120;8.764;2023-03-25T05:32:12;10.90;;;2.88;;
54919;SDS011;63804;53.120;8.764;2023-03-25T05:34:42;10.98;;;3.10;;
54919;SDS011;63804;53.120;8.764;2023-03-25T05:37:11;11.73;;;2.92;;
54919;SDS011;63804;53.120;8.764;2023-03-25T05:39:37;11.40;;;2.65;;
54919;SDS011;63804;53.120;8.764;2023-03-25T05:42:03;11.80;;;3.03;;
54919;SDS011;63804;53.120;8.764;2023-03-25T05:44:28;13.85;;;3.05;;
54919;SDS011;63804;53.120;8.764;2023-03-25T05:46:54;14.07;;;3.10;;
54919;SDS011;63804;53.120;8.764;2023-03-25T05:49:20;12.63;;;2.65;;
54919;SDS011;63804;53.120;8.764;2023-03-25T05:51:46;11.95;;;2.65;;
54919;SDS011;63804;53.120;8.764;2023-03-25T05:54:14;12.75;;;2.85;;
54919;SDS011;63804;53.120;8.764;2023-03-25T05:56:40;9.27;;;2.95;;
54919;SDS011;63804;53.120;8.764;2023-03-25T05:59:07;9.80;;;3.05;;
54919;SDS011;63804;53.120;8.764;2023-03-25T06:01:34;8.77;;;3.00;;
54919;SDS011;63804;53.120;8.764;2023-03-25T06:04:03;9.73;;;2.42;;
54919;SDS011;63804;53.120;8.764;2023-03-25T06:06:35;9.32;;;2.70;;
54919;SDS011;63804;53.120;8.764;2023-03-25T06:09:01;10.52;;;2.65;;
54919;SDS011;63804;53.120;8.764;2023-03-25T06:11:27;10.48;;;2.78;;
54919;SDS011;63804;53.120;8.764;2023-03-25T06:13:53;9.60;;;2.72;;
54919;SDS011;63804;53.120;8.764;2023-03-25T06:16:19;6.63;;;2.53;;
54919;SDS011;63804;53.120;8.764;2023-03-25T06:18:46;9.50;;;2.10;;
54919;SDS011;63804;53.120;8.764;2023-03-25T06:21:20;9.05;;;2.42;;
54919;SDS011;63804;53.120;8.764;2023-03-25T06:23:46;6.28;;;2.08;;
54919;SDS011;63804;53.120;8.764;2023-03-25T06:26:14;7.45;;;2.10;;
54919;SDS011;63804;53.120;8.764;2023-03-25T06:28:47;8.80;;;2.30;;
54919;SDS011;63804;53.120;8.764;2023-03-25T06:31:14;7.47;;;2.10;;
54919;SDS011;63804;53.120;8.764;2023-03-25T06:33:42;8.07;;;2.17;;
54919;SDS011;63804;53.120;8.764;2023-03-25T06:36:08;8.70;;;2.50;;
54919;SDS011;63804;53.120;8.764;2023-03-25T06:38:36;6.40;;;2.05;;
54919;SDS011;63804;53.120;8.764;2023-03-25T06:41:02;8.05;;;2.25;;
54919;SDS011;63804;53.120;8.764;2023-03-25T06:43:28;8.65;;;2.30;;
54919;SDS011;63804;53.120;8.764;2023-03-25T06:45:53;9.10;;;2.67;;
54919;SDS011;63804;53.120;8.764;2023-03-25T06:48:19;6.55;;;1.90;;
54919;SDS011;63804;53.120;8.764;2023-03-25T06:50:44;5.40;;;1.80;;
54919;SDS011;63804;53.120;8.764;2023-03-25T06:53:10;7.10;;;1.70;;
54919;SDS011;63804;53.120;8.764;2023-03-25T06:55:35;6.25;;;1.98;;
54919;SDS011;63804;53.120;8.764;2023-03-25T06:58:02;7.18;;;2.30;;
54919;SDS011;63804;53.120;8.764;2023-03-25T07:00:28;9.05;;;2.13;;
54919;SDS011;63804;53.120;8.764;2023-03-25T07:02:54;8.30;;;1.90;;
54919;SDS011;63804;53.120;8.764;2023-03-25T07:05:19;7.28;;;2.10;;
54919;SDS011;63804;53.120;8.764;2023-03-25T07:07:45;7.18;;;1.90;;
54919;SDS011;63804;53.120;8.764;2023-03-25T07:10:11;9.07;;;2.10;;
54919;SDS011;63804;53.120;8.764;2023-03-25T07:12:37;6.80;;;2.35;;
54919;SDS011;63804;53.120;8.764;2023-03-25T07:15:03;10.68;;;2.33;;
54919;SDS011;63804;53.120;8.764;2023-03-25T07:17:29;6.65;;;1.90;;
54919;SDS011;63804;53.120;8.764;2023-03-25T07:19:55;7.40;;;1.92;;
54919;SDS011;63804;53.120;8.764;2023-03-25T07:22:20;7.57;;;2.05;;
54919;SDS011;63804;53.120;8.764;2023-03-25T07:24:46;10.50;;;1.98;;
54919;SDS011;63804;53.120;8.764;2023-03-25T07:27:12;5.65;;;2.35;;
54919;SDS011;63804;53.120;8.764;2023-03-25T07:29:38;9.15;;;2.35;;
54919;SDS011;63804;53.120;8.764;2023-03-25T07:32:04;11.88;;;2.83;;
54919;SDS011;63804;53.120;8.764;2023-03-25T07:34:30;7.20;;;2.58;;
54919;SDS011;63804;53.120;8.764;2023-03-25T07:36:56;9.23;;;3.03;;
54919;SDS011;63804;53.120;8.764;2023-03-25T07:39:21;9.55;;;2.15;;
54919;SDS011;63804;53.120;8.764;2023-03-25T07:41:52;10.57;;;2.10;;
54919;SDS011;63804;53.120;8.764;2023-03-25T07:44:18;7.10;;;2.08;;
54919;SDS011;63804;53.120;8.764;2023-03-25T07:46:47;9.73;;;2.35;;
54919;SDS011;63804;53.120;8.764;2023-03-25T07:49:13;7.88;;;2.20;;
54919;SDS011;63804;53.120;8.764;2023-03-25T07:51:40;11.18;;;2.50;;
54919;SDS011;63804;53.120;8.764;2023-03-25T07:54:06;9.20;;;2.33;;
54919;SDS011;63804;53.120;8.764;2023-03-25T07:56:31;8.63;;;2.00;;
54919;SDS011;63804;53.120;8.764;2023-03-25T07:58:57;8.10;;;2.05;;
54919;SDS011;63804;53.120;8.764;2023-03-25T08:01:22;5.88;;;1.77;;
54919;SDS011;63804;53.120;8.764;2023-03-25T08:03:48;3.85;;;1.50;;
54919;SDS011;63804;53.120;8.764;2023-03-25T08:06:13;4.97;;;1.38;;
54919;SDS011;63804;53.120;8.764;2023-03-25T08:08:39;4.10;;;1.10;;
54919;SDS011;63804;53.120;8.764;2023-03-25T08:11:05;6.00;;;1.23;;
54919;SDS011;63804;53.120;8.764;2023-03-25T08:13:31;6.50;;;1.50;;
54919;SDS011;63804;53.120;8.764;2023-03-25T08:15:57;3.53;;;1.20;;
54919;SDS011;63804;53.120;8.764;2023-03-25T08:18:23;6.60;;;1.05;;
54919;SDS011;63804;53.120;8.764;2023-03-25T08:20:49;6.50;;;1.20;;
54919;SDS011;63804;53.120;8.764;2023-03-25T08:23:15;7.07;;;1.25;;
54919;SDS011;63804;53.120;8.764;2023-03-25T08:25:42;4.97;;;1.00;;
54919;SDS011;63804;53.120;8.764;2023-03-25T08:28:08;6.50;;;1.40;;
54919;SDS011;63804;53.120;8.764;2023-03-25T08:30:37;5.40;;;1.45;;
54919;SDS011;63804;53.120;8.764;2023-03-25T08:33:03;5.25;;;1.23;;
54919;SDS011;63804;53.120;8.764;2023-03-25T08:35:31;6.90;;;1.50;;
54919;SDS011;63804;53.120;8.764;2023-03-25T08:37:58;9.25;;;1.13;;
54919;SDS011;63804;53.120;8.764;2023-03-25T08:40:25;7.80;;;1.70;;
54919;SDS011;63804;53.120;8.764;2023-03-25T08:42:51;4.55;;;1.25;;
54919;SDS011;63804;53.120;8.764;2023-03-25T08:45:17;5.60;;;1.00;;
54919;SDS011;63804;53.120;8.764;2023-03-25T08:47:43;4.28;;;0.90;;
54919;SDS011;63804;53.120;8.764;2023-03-25T08:50:09;3.90;;;1.10;;
54919;SDS011;63804;53.120;8.764;2023-03-25T08:52:36;5.53;;;1.23;;
54919;SDS011;63804;53.120;8.764;2023-03-25T08:55:01;4.97;;;1.20;;
54919;SDS011;63804;53.120;8.764;2023-03-25T08:57:27;5.20;;;1.15;;
54919;SDS011;63804;53.120;8.764;2023-03-25T08:59:53;6.13;;;1.30;;
54919;SDS011;63804;53.120;8.764;2023-03-25T09:02:18;3.78;;;1.20;;
54919;SDS011;63804;53.120;8.764;2023-03-25T09:04:46;2.90;;;1.00;;
54919;SDS011;63804;53.120;8.764;2023-03-25T09:07:12;4.45;;;1.20;;
54919;SDS011;63804;53.120;8.764;2023-03-25T09:09:41;4.65;;;1.30;;
54919;SDS011;63804;53.120;8.764;2023-03-25T09:12:07;5.65;;;1.13;;
54919;SDS011;63804;53.120;8.764;2023-03-25T09:14:33;4.88;;;1.17;;
54919;SDS011;63804;53.120;8.764;2023-03-25T09:16:58;5.97;;;1.25;;
54919;SDS011;63804;53.120;8.764;2023-03-25T09:19:24;5.30;;;1.20;;
54919;SDS011;63804;53.120;8.764;2023-03-25T09:21:50;7.00;;;1.48;;
54919;SDS011;63804;53.120;8.764;2023-03-25T09:24:15;9.68;;;1.85;;
54919;SDS011;63804;53.120;8.764;2023-03-25T09:26:41;8.43;;;1.60;;
54919;SDS011;63804;53.120;8.764;2023-03-25T09:29:06;8.20;;;1.75;;
54919;SDS011;63804;53.120;8.764;2023-03-25T09:31:32;7.68;;;1.75;;
54919;SDS011;63804;53.120;8.764;2023-03-25T09:33:58;8.65;;;1.80;;
54919;SDS011;63804;53.120;8.764;2023-03-25T09:36:23;6.85;;;1.73;;
54919;SDS011;63804;53.120;8.764;2023-03-25T09:38:49;6.43;;;1.90;;
54919;SDS011;63804;53.120;8.764;2023-03-25T09:47:18;11.60;;;2.50;;
54919;SDS011;63804;53.120;8.764;2023-03-25T09:49:46;11.07;;;2.20;;
54919;SDS011;63804;53.120;8.764;2023-03-25T09:52:22;9.55;;;2.63;;
54919;SDS011;63804;53.120;8.764;2023-03-25T09:54:59;10.20;;;2.53;;
54919;SDS011;63804;53.120;8.764;2023-03-25T09:57:29;11.20;;;2.50;;
54919;SDS011;63804;53.120;8.764;2023-03-25T09:59:58;8.13;;;2.03;;
54919;SDS011;63804;53.120;8.764;2023-03-25T10:02:36;8.23;;;2.03;;
54919;SDS011;63804;53.120;8.764;2023-03-25T10:05:14;9.63;;;2.55;;
54919;SDS011;63804;53.120;8.764;2023-03-25T10:26:52;9.23;;;2.78;;
54919;SDS011;63804;53.120;8.764;2023-03-25T10:29:32;8.40;;;2.40;;
54919;SDS011;63804;53.120;8.764;2023-03-25T10:32:10;10.10;;;2.50;;
54919;SDS011;63804;53.120;8.764;2023-03-25T10:34:43;12.95;;;2.20;;
54919;SDS011;63804;53.120;8.764;2023-03-25T10:37:15;8.05;;;2.42;;
54919;SDS011;63804;53.120;8.764;2023-03-25T10:39:48;9.38;;;2.20;;
54919;SDS011;63804;53.120;8.764;2023-03-25T10:42:34;7.43;;;2.50;;
54919;SDS011;63804;53.120;8.764;2023-03-25T10:45:13;5.10;;;1.98;;
54919;SDS011;63804;53.120;8.764;2023-03-25T10:47:42;6.30;;;2.10;;
54919;SDS011;63804;53.120;8.764;2023-03-25T10:50:17;7.63;;;2.33;;
54919;SDS011;63804;53.120;8.764;2023-03-25T10:52:46;6.75;;;2.53;;
54919;SDS011;63804;53.120;8.764;2023-03-25T10:55:26;9.43;;;2.45;;
54919;SDS011;63804;53.120;8.764;2023-03-25T10:57:56;8.80;;;2.47;;
54919;SDS011;63804;53.120;8.764;2023-03-25T11:00:22;7.65;;;2.65;;
54919;SDS011;63804;53.120;8.764;2023-03-25T11:02:50;12.65;;;2.78;;
54919;SDS011;63804;53.120;8.764;2023-03-25T11:05:20;11.70;;;2.80;;
54919;SDS011;63804;53.120;8.764;2023-03-25T11:07:52;11.95;;;2.67;;
54919;SDS011;63804;53.120;8.764;2023-03-25T11:10:23;11.32;;;2.42;;
54919;SDS011;63804;53.120;8.764;2023-03-25T11:12:51;10.30;;;2.60;;
54919;SDS011;63804;53.120;8.764;2023-03-25T11:15:28;8.80;;;2.45;;
54919;SDS011;63804;53.120;8.764;2023-03-25T11:20:56;11.75;;;2.88;;
54919;SDS011;63804;53.120;8.764;2023-03-25T11:23:27;14.35;;;2.80;;
54919;SDS011;63804;53.120;8.764;2023-03-25T11:26:00;10.38;;;2.72;;
54919;SDS011;63804;53.120;8.764;2023-03-25T11:28:37;8.00;;;2.17;;
54919;SDS011;63804;53.120;8.764;2023-03-25T11:31:13;11.13;;;2.40;;
54919;SDS011;63804;53.120;8.764;2023-03-25T11:33:40;9.70;;;2.10;;
54919;SDS011;63804;53.120;8.764;2023-03-25T11:36:46;9.95;;;2.28;;
54919;SDS011;63804;53.120;8.764;2023-03-25T11:41:47;8.85;;;2.75;;
54919;SDS011;63804;53.120;8.764;2023-03-25T11:46:50;9.95;;;2.72;;
54919;SDS011;63804;53.120;8.764;2023-03-25T11:49:26;8.02;;;3.17;;
54919;SDS011;63804;53.120;8.764;2023-03-25T11:51:59;9.57;;;3.00;;
54919;SDS011;63804;53.120;8.764;2023-03-25T11:54:27;7.88;;;2.38;;
54919;SDS011;63804;53.120;8.764;2023-03-25T11:56:53;11.40;;;2.58;;
54919;SDS011;63804;53.120;8.764;2023-03-25T11:59:22;13.52;;;3.30;;
54919;SDS011;63804;53.120;8.764;2023-03-25T12:02:00;9.23;;;2.35;;
54919;SDS011;63804;53.120;8.764;2023-03-25T12:04:28;8.55;;;2.13;;
54919;SDS011;63804;53.120;8.764;2023-03-25T12:07:05;8.68;;;1.77;;
54919;SDS011;63804;53.120;8.764;2023-03-25T12:09:33;7.97;;;1.40;;
54919;SDS011;63804;53.120;8.764;2023-03-25T12:17:28;5.70;;;1.40;;
54919;SDS011;63804;53.120;8.764;2023-03-25T12:23:24;6.88;;;1.45;;
54919;SDS011;63804;53.120;8.764;2023-03-25T12:40:22;6.40;;;1.40;;
54919;SDS011;63804;53.120;8.764;2023-03-25T12:43:09;4.32;;;1.10;;
54919;SDS011;63804;53.120;8.764;2023-03-25T12:45:39;6.75;;;1.55;;
54919;SDS011;63804;53.120;8.764;2023-03-25T12:54:25;8.57;;;1.50;;
54919;SDS011;63804;53.120;8.764;2023-03-25T12:59:52;4.82;;;1.13;;
54919;SDS011;63804;53.120;8.764;2023-03-25T13:02:48;7.25;;;1.38;;
54919;SDS011;63804;53.120;8.764;2023-03-25T13:10:40;5.93;;;1.02;;
54919;SDS011;63804;53.120;8.764;2023-03-25T13:13:09;6.38;;;1.30;;
54919;SDS011;63804;53.120;8.764;2023-03-25T13:15:40;6.90;;;1.00;;
54919;SDS011;63804;53.120;8.764;2023-03-25T13:18:25;6.40;;;1.20;;
54919;SDS011;63804;53.120;8.764;2023-03-25T13:23:30;5.57;;;1.00;;
54919;SDS011;63804;53.120;8.764;2023-03-25T13:25:59;3.33;;;0.93;;
54919;SDS011;63804;53.120;8.764;2023-03-25T13:31:33;5.75;;;1.10;;
54919;SDS011;63804;53.120;8.764;2023-03-25T13:34:10;6.20;;;1.35;;
54919;SDS011;63804;53.120;8.764;2023-03-25T13:36:41;7.30;;;1.48;;
54919;SDS011;63804;53.120;8.764;2023-03-25T13:39:12;7.38;;;1.27;;
54919;SDS011;63804;53.120;8.764;2023-03-25T13:41:43;5.35;;;1.20;;
54919;SDS011;63804;53.120;8.764;2023-03-25T13:44:23;5.97;;;1.30;;
54919;SDS011;63804;53.120;8.764;2023-03-25T13:46:56;8.25;;;1.20;;
54919;SDS011;63804;53.120;8.764;2023-03-25T13:49:41;9.27;;;1.50;;
54919;SDS011;63804;53.120;8.764;2023-03-25T13:52:12;6.55;;;1.67;;
54919;SDS011;63804;53.120;8.764;2023-03-25T13:54:49;7.03;;;1.20;;
54919;SDS011;63804;53.120;8.764;2023-03-25T14:11:10;5.68;;;1.30;;
54919;SDS011;63804;53.120;8.764;2023-03-25T14:13:55;8.63;;;1.65;;
54919;SDS011;63804;53.120;8.764;2023-03-25T14:16:35;5.35;;;1.48;;
54919;SDS011;63804;53.120;8.764;2023-03-25T14:19:09;5.95;;;1.40;;
54919;SDS011;63804;53.120;8.764;2023-03-25T14:26:59;8.32;;;2.13;;
54919;SDS011;63804;53.120;8.764;2023-03-25T14:29:39;9.02;;;1.92;;
54919;SDS011;63804;53.120;8.764;2023-03-25T14:34:48;8.45;;;1.70;;
54919;SDS011;63804;53.120;8.764;2023-03-25T14:39:43;7.45;;;1.67;;
54919;SDS011;63804;53.120;8.764;2023-03-25T14:42:22;6.30;;;1.80;;
54919;SDS011;63804;53.120;8.764;2023-03-25T14:48:27;7.85;;;1.85;;
54919;SDS011;63804;53.120;8.764;2023-03-25T14:53:39;7.57;;;1.85;;
54919;SDS011;63804;53.120;8.764;2023-03-25T14:56:06;8.93;;;1.73;;
54919;SDS011;63804;53.120;8.764;2023-03-25T14:58:39;4.55;;;1.30;;
54919;SDS011;63804;53.120;8.764;2023-03-25T15:01:08;10.48;;;1.42;;
54919;SDS011;63804;53.120;8.764;2023-03-25T15:03:39;8.50;;;1.40;;
54919;SDS011;63804;53.120;8.764;2023-03-25T15:06:09;9.15;;;1.70;;
54919;SDS011;63804;53.120;8.764;2023-03-25T15:08:51;8.38;;;1.42;;
54919;SDS011;63804;53.120;8.764;2023-03-25T15:11:26;7.93;;;1.40;;
54919;SDS011;63804;53.120;8.764;2023-03-25T15:14:02;8.02;;;1.40;;
54919;SDS011;63804;53.120;8.764;2023-03-25T15:16:31;6.38;;;1.42;;
54919;SDS011;63804;53.120;8.764;2023-03-25T15:21:33;9.07;;;2.00;;
54919;SDS011;63804;53.120;8.764;2023-03-25T15:24:35;11.00;;;3.10;;
54919;SDS011;63804;53.120;8.764;2023-03-25T15:44:12;8.05;;;2.10;;
54919;SDS011;63804;53.120;8.764;2023-03-25T15:55:27;7.88;;;2.05;;
54919;SDS011;63804;53.120;8.764;2023-03-25T15:57:58;10.88;;;2.22;;
54919;SDS011;63804;53.120;8.764;2023-03-25T16:00:34;9.85;;;1.92;;
54919;SDS011;63804;53.120;8.764;2023-03-25T16:05:30;10.00;;;2.05;;
54919;SDS011;63804;53.120;8.764;2023-03-25T16:07:58;11.68;;;2.65;;
54919;SDS011;63804;53.120;8.764;2023-03-25T16:10:32;10.95;;;2.40;;
54919;SDS011;63804;53.120;8.764;2023-03-25T16:13:03;8.25;;;2.40;;
54919;SDS011;63804;53.120;8.764;2023-03-25T16:15:32;6.25;;;1.30;;
54919;SDS011;63804;53.120;8.764;2023-03-25T16:18:00;4.30;;;0.88;;
54919;SDS011;63804;53.120;8.764;2023-03-25T16:20:31;2.53;;;0.65;;
54919;SDS011;63804;53.120;8.764;2023-03-25T16:22:59;3.58;;;0.65;;
54919;SDS011;63804;53.120;8.764;2023-03-25T16:25:46;3.05;;;0.60;;
54919;SDS011;63804;53.120;8.764;2023-03-25T16:28:14;3.00;;;0.70;;
54919;SDS011;63804;53.120;8.764;2023-03-25T16:30:49;4.30;;;0.80;;
54919;SDS011;63804;53.120;8.764;2023-03-25T16:33:17;3.53;;;0.77;;
54919;SDS011;63804;53.120;8.764;2023-03-25T16:35:58;2.05;;;0.77;;
54919;SDS011;63804;53.120;8.764;2023-03-25T16:38:26;3.50;;;1.00;;
54919;SDS011;63804;53.120;8.764;2023-03-25T16:40:58;2.40;;;0.98;;
54919;SDS011;63804;53.120;8.764;2023-03-25T16:43:28;3.67;;;0.68;;
54919;SDS011;63804;53.120;8.764;2023-03-25T16:46:04;2.13;;;0.70;;
54919;SDS011;63804;53.120;8.764;2023-03-25T16:48:32;3.47;;;1.00;;
54919;SDS011;63804;53.120;8.764;2023-03-25T16:51:14;5.22;;;0.95;;
54919;SDS011;63804;53.120;8.764;2023-03-25T16:53:39;6.47;;;0.95;;
54919;SDS011;63804;53.120;8.764;2023-03-25T16:58:35;4.85;;;0.80;;
54919;SDS011;63804;53.120;8.764;2023-03-25T17:01:14;3.60;;;0.77;;
54919;SDS011;63804;53.120;8.764;2023-03-25T17:03:41;3.92;;;1.00;;
54919;SDS011;63804;53.120;8.764;2023-03-25T17:06:11;4.55;;;1.17;;
54919;SDS011;63804;53.120;8.764;2023-03-25T17:08:40;5.25;;;1.17;;
54919;SDS011;63804;53.120;8.764;2023-03-25T17:11:07;5.35;;;1.10;;
54919;SDS011;63804;53.120;8.764;2023-03-25T17:13:37;3.72;;;1.00;;
54919;SDS011;63804;53.120;8.764;2023-03-25T17:16:06;3.70;;;1.10;;
54919;SDS011;63804;53.120;8.764;2023-03-25T17:18:32;7.95;;;1.35;;
54919;SDS011;63804;53.120;8.764;2023-03-25T17:21:00;5.57;;;1.20;;
54919;SDS011;63804;53.120;8.764;2023-03-25T17:23:36;4.30;;;1.10;;
54919;SDS011;63804;53.120;8.764;2023-03-25T17:26:09;4.68;;;0.95;;
54919;SDS011;63804;53.120;8.764;2023-03-25T17:31:33;5.40;;;1.45;;
54919;SDS011;63804;53.120;8.764;2023-03-25T17:36:44;4.00;;;1.23;;
54919;SDS011;63804;53.120;8.764;2023-03-25T17:39:23;5.95;;;1.40;;
54919;SDS011;63804;53.120;8.764;2023-03-25T17:41:55;4.20;;;1.30;;
54919;SDS011;63804;53.120;8.764;2023-03-25T17:44:28;7.20;;;2.08;;
54919;SDS011;63804;53.120;8.764;2023-03-25T17:47:05;6.35;;;1.45;;
54919;SDS011;63804;53.120;8.764;2023-03-25T17:49:31;10.02;;;2.75;;
54919;SDS011;63804;53.120;8.764;2023-03-25T17:51:57;10.75;;;3.10;;
54919;SDS011;63804;53.120;8.764;2023-03-25T17:54:23;6.68;;;2.08;;
54919;SDS011;63804;53.120;8.764;2023-03-25T17:56:49;5.22;;;1.52;;
54919;SDS011;63804;53.120;8.764;2023-03-25T18:02:07;5.00;;;1.38;;
54919;SDS011;63804;53.120;8.764;2023-03-25T18:04:34;7.50;;;1.40;;
54919;SDS011;63804;53.120;8.764;2023-03-25T18:07:00;6.35;;;1.33;;